createdAt,value
2018-11-14T00:00:22.446Z,94.44
2018-11-14T00:03:13.926Z,93.97
2018-11-14T00:05:42.916Z,94.25
2018-11-14T00:08:12.954Z,94.69
2018-11-14T00:11:06.007Z,94.82
2018-11-14T00:13:35.707Z,94.66
2018-11-14T00:16:09.103Z,94.67
2018-11-14T00:18:41.866Z,95.19
2018-11-14T00:21:11.110Z,94.69
2018-11-14T00:23:47.305Z,94.79
2018-11-14T00:26:18.237Z,94.71
2018-11-14T00:31:42.801Z,94.13
2018-11-14T00:34:21.632Z,94.22
2018-11-14T00:36:55.267Z,94.90
2018-11-14T00:39:27.978Z,95.92
2018-11-14T00:42:10.768Z,95.31
2018-11-14T00:44:46.140Z,96.19
2018-11-14T00:47:19.529Z,95.92
2018-11-14T00:49:50.551Z,96.01
2018-11-14T00:52:24.157Z,96.76
2018-11-14T00:55:09.295Z,96.29
2018-11-14T01:00:31.942Z,95.32
2018-11-14T01:03:07.056Z,94.68
2018-11-14T01:08:52.340Z,94.73
2018-11-14T01:11:25.078Z,95.25
2018-11-14T01:13:56.051Z,94.23
2018-11-14T01:16:27.293Z,94.53
2018-11-14T01:19:00.537Z,94.75
2018-11-14T01:21:30.101Z,95.54
2018-11-14T01:23:59.557Z,95.42
2018-11-14T01:26:32.735Z,94.75
2018-11-14T01:29:14.130Z,95.06
2018-11-14T01:31:53.646Z,93.47
2018-11-14T01:34:23.231Z,93.43
2018-11-14T01:39:52.985Z,93.80
2018-11-14T01:42:23.978Z,93.92
2018-11-14T01:45:02.295Z,93.45
2018-11-14T01:47:31.297Z,94.23
2018-11-14T01:50:00.258Z,93.88
2018-11-14T01:58:26.475Z,93.21
2018-11-14T02:00:55.370Z,92.84
2018-11-14T02:03:24.256Z,93.57
2018-11-14T02:05:54.282Z,94.53
2018-11-14T02:08:24.233Z,93.60
2018-11-14T02:11:04.268Z,94.54
2018-11-14T02:13:40.803Z,93.81
2018-11-14T02:16:09.715Z,94.05
2018-11-14T02:18:38.625Z,94.44
2018-11-14T02:21:07.555Z,94.13
2018-11-14T02:23:36.419Z,93.96
2018-11-14T02:26:05.656Z,94.01
2018-11-14T02:28:36.558Z,93.48
2018-11-14T02:31:05.684Z,94.45
2018-11-14T02:33:35.587Z,94.24
2018-11-14T02:36:04.509Z,95.40
2018-11-14T02:38:33.436Z,95.32
2018-11-14T02:41:02.462Z,94.34
2018-11-14T02:43:31.369Z,94.43
2018-11-14T02:46:00.246Z,93.80
2018-11-14T02:48:29.224Z,92.30
2018-11-14T02:51:09.503Z,93.34
2018-11-14T02:53:38.366Z,93.78
2018-11-14T02:56:09.664Z,93.35
2018-11-14T02:58:38.724Z,93.51
2018-11-14T03:01:12.829Z,93.76
2018-11-14T03:03:53.744Z,93.99
2018-11-14T03:06:34.276Z,94.22
2018-11-14T03:09:03.994Z,92.53
2018-11-14T03:11:33.892Z,93.77
2018-11-14T03:14:12.920Z,93.48
2018-11-14T03:16:45.195Z,94.34
2018-11-14T03:19:17.269Z,93.66
2018-11-14T03:21:46.799Z,94.11
2018-11-14T03:24:23.284Z,93.48
2018-11-14T03:26:53.337Z,93.25
2018-11-14T03:29:22.255Z,93.91
2018-11-14T03:31:51.139Z,94.15
2018-11-14T03:34:20.072Z,95.62
2018-11-14T03:37:02.851Z,95.08
2018-11-14T03:39:35.799Z,94.70
2018-11-14T03:42:21.515Z,94.63
2018-11-14T03:44:50.632Z,94.75
2018-11-14T03:47:25.136Z,93.98
2018-11-14T03:49:54.051Z,94.63
2018-11-14T03:52:24.117Z,95.74
2018-11-14T03:54:53.031Z,95.25
2018-11-14T03:57:24.057Z,94.69
2018-11-14T03:59:54.161Z,94.07
2018-11-14T04:02:27.549Z,94.20
2018-11-14T04:05:00.273Z,93.51
2018-11-14T04:07:29.141Z,92.71
2018-11-14T04:09:58.056Z,94.29
2018-11-14T04:12:26.978Z,94.90
2018-11-14T04:14:55.890Z,94.48
2018-11-14T04:17:37.699Z,94.74
2018-11-14T04:20:13.891Z,94.33
2018-11-14T04:22:44.007Z,95.30
2018-11-14T04:25:22.443Z,94.97
2018-11-14T04:27:51.415Z,96.00
2018-11-14T04:30:21.518Z,94.87
2018-11-14T04:32:50.713Z,95.47
2018-11-14T04:35:20.521Z,94.00
2018-11-14T04:37:49.527Z,94.76
2018-11-14T04:40:20.365Z,93.88
2018-11-14T04:42:55.000Z,94.20
2018-11-14T04:45:44.875Z,93.76
2018-11-14T04:48:14.854Z,93.60
2018-11-14T04:50:43.777Z,93.28
2018-11-14T04:53:14.756Z,94.42
2018-11-14T04:56:01.239Z,93.75
2018-11-14T04:58:31.165Z,93.64
2018-11-14T05:01:13.132Z,93.36
2018-11-14T05:03:42.038Z,94.89
2018-11-14T05:06:14.724Z,94.16
2018-11-14T05:08:49.582Z,94.84
2018-11-14T05:11:18.538Z,94.02
2018-11-14T05:13:52.254Z,93.82
2018-11-14T05:16:22.447Z,94.78
2018-11-14T05:18:51.370Z,93.56
2018-11-14T05:21:20.523Z,93.77
2018-11-14T05:23:51.945Z,94.33
2018-11-14T05:26:25.856Z,94.76
2018-11-14T05:28:56.831Z,93.87
2018-11-14T05:31:31.551Z,95.20
2018-11-14T05:34:04.794Z,95.00
2018-11-14T05:36:33.696Z,94.21
2018-11-14T05:39:02.602Z,95.14
2018-11-14T05:41:31.471Z,94.30
2018-11-14T05:44:01.485Z,94.74
2018-11-14T05:46:35.729Z,93.82
2018-11-14T05:49:09.512Z,93.91
2018-11-14T05:54:49.964Z,93.25
2018-11-14T05:57:22.076Z,92.65
2018-11-14T05:59:50.957Z,93.64
2018-11-14T06:02:19.872Z,94.08
2018-11-14T06:08:00.070Z,95.19
2018-11-14T06:10:34.944Z,95.63
2018-11-14T06:13:04.013Z,95.15
2018-11-14T06:15:32.875Z,94.64
2018-11-14T06:18:03.937Z,95.29
2018-11-14T06:20:33.073Z,94.18
2018-11-14T06:23:13.517Z,93.58
2018-11-14T06:25:46.984Z,94.13
2018-11-14T06:28:22.711Z,94.07
2018-11-14T06:30:56.127Z,94.61
2018-11-14T06:36:36.857Z,94.20
2018-11-14T06:39:10.472Z,93.12
2018-11-14T06:44:51.617Z,93.44
2018-11-14T06:47:22.641Z,92.68
2018-11-14T06:50:02.281Z,93.63
2018-11-14T06:52:48.217Z,93.27
2018-11-14T07:01:20.911Z,93.22
2018-11-14T07:03:54.550Z,93.99
2018-11-14T07:06:42.452Z,93.64
2018-11-14T07:09:17.005Z,93.87
2018-11-14T07:11:46.087Z,92.67
2018-11-14T07:14:26.313Z,92.83
2018-11-14T07:16:55.367Z,92.48
2018-11-14T07:19:28.322Z,93.15
2018-11-14T07:21:58.393Z,92.76
2018-11-14T07:24:29.323Z,92.68
2018-11-14T07:27:03.883Z,92.58
2018-11-14T07:29:32.810Z,92.09
2018-11-14T07:32:18.478Z,92.10
2018-11-14T07:34:47.298Z,92.51
2018-11-14T07:37:29.793Z,91.70
2018-11-14T07:39:58.825Z,91.62
2018-11-14T07:42:27.830Z,91.62
2018-11-14T07:48:02.897Z,91.52
2018-11-14T07:50:33.098Z,93.03
2018-11-14T07:53:14.235Z,92.23
2018-11-14T07:55:43.117Z,92.39
2018-11-14T07:58:12.049Z,91.32
2018-11-14T08:00:50.672Z,90.75
2018-11-14T08:03:19.593Z,91.01
2018-11-14T08:05:48.551Z,90.56
2018-11-14T08:08:21.152Z,89.98
2018-11-14T08:11:04.759Z,89.88
2018-11-14T08:13:58.719Z,89.51
2018-11-14T08:16:45.582Z,90.98
2018-11-14T08:19:15.582Z,90.25
2018-11-14T08:21:46.658Z,90.32
2018-11-14T08:24:24.051Z,90.09
2018-11-14T08:26:55.441Z,89.57
2018-11-14T08:29:24.440Z,89.79
2018-11-14T08:32:00.163Z,90.26
2018-11-14T08:34:44.542Z,89.28
2018-11-14T08:37:14.255Z,90.45
2018-11-14T08:39:48.268Z,89.85
2018-11-14T08:42:19.023Z,89.85
2018-11-14T08:44:52.234Z,89.71
2018-11-14T08:47:29.675Z,89.58
2018-11-14T08:49:59.153Z,89.44
2018-11-14T08:52:30.150Z,88.90
2018-11-14T08:57:53.732Z,89.59
2018-11-14T09:00:24.317Z,88.74
2018-11-14T09:02:53.504Z,89.32
2018-11-14T09:05:22.450Z,88.70
2018-11-14T09:07:51.592Z,88.50
2018-11-14T09:10:27.560Z,88.78
2018-11-14T09:12:57.611Z,87.92
2018-11-14T09:15:33.545Z,88.33
2018-11-14T09:18:02.500Z,86.91
2018-11-14T09:20:31.360Z,86.36
2018-11-14T09:23:06.787Z,86.69
2018-11-14T09:25:53.884Z,85.86
2018-11-14T09:28:22.935Z,85.72
2018-11-14T09:30:52.919Z,84.62
2018-11-14T09:33:21.934Z,84.57
2018-11-14T09:36:07.920Z,85.52
2018-11-14T09:38:36.920Z,84.65
2018-11-14T09:41:05.964Z,85.53
2018-11-14T09:43:35.021Z,84.19
2018-11-14T09:46:09.495Z,85.06
2018-11-14T09:48:38.480Z,85.27
2018-11-14T09:54:16.990Z,85.20
2018-11-14T09:56:52.373Z,85.11
2018-11-14T09:59:22.333Z,84.33
2018-11-14T10:01:51.264Z,85.09
2018-11-14T10:04:25.422Z,84.49
2018-11-14T10:10:07.663Z,83.46
2018-11-14T10:12:36.772Z,84.20
2018-11-14T10:15:07.804Z,84.32
2018-11-14T10:17:41.731Z,82.64
2018-11-14T10:20:15.069Z,83.08
2018-11-14T10:22:44.430Z,81.75
2018-11-14T10:25:20.516Z,81.77
2018-11-14T10:27:56.189Z,82.32
2018-11-14T10:30:37.216Z,82.18
2018-11-14T10:33:13.414Z,81.83
2018-11-14T10:35:44.393Z,81.92
2018-11-14T10:38:13.317Z,81.84
2018-11-14T10:40:42.253Z,80.50
2018-11-14T10:43:20.817Z,80.76
2018-11-14T10:45:54.275Z,80.75
2018-11-14T10:48:36.964Z,80.61
2018-11-14T10:51:05.921Z,79.77
2018-11-14T10:53:34.761Z,79.11
2018-11-14T10:56:03.736Z,78.24
2018-11-14T10:58:32.816Z,78.23
2018-11-14T11:01:06.922Z,78.87
2018-11-14T11:03:37.119Z,79.08
2018-11-14T11:06:10.220Z,78.58
2018-11-14T11:08:47.810Z,78.86
2018-11-14T11:11:18.017Z,78.55
2018-11-14T11:14:09.154Z,79.23
2018-11-14T11:17:40.883Z,78.96
2018-11-14T11:20:09.732Z,78.18
2018-11-14T11:22:38.657Z,78.15
2018-11-14T11:25:26.020Z,78.08
2018-11-14T11:28:11.940Z,77.93
2018-11-14T11:30:46.767Z,77.47
2018-11-14T11:33:19.862Z,77.79
2018-11-14T11:35:48.825Z,76.87
2018-11-14T11:38:18.010Z,77.78
2018-11-14T11:40:46.849Z,76.79
2018-11-14T11:43:20.526Z,76.90
2018-11-14T11:45:49.442Z,78.10
2018-11-14T11:48:21.689Z,77.13
2018-11-14T11:50:50.606Z,76.04
2018-11-14T11:56:33.803Z,76.59
2018-11-14T11:59:02.784Z,76.41
2018-11-14T12:01:31.680Z,77.37
2018-11-14T12:04:00.610Z,76.02
2018-11-14T12:06:29.701Z,76.56
2018-11-14T12:08:58.598Z,75.19
2018-11-14T12:14:28.468Z,76.38
2018-11-14T12:16:57.377Z,75.16
2018-11-14T12:19:26.417Z,75.76
2018-11-14T12:21:56.587Z,75.62
2018-11-14T12:24:45.020Z,74.98
2018-11-14T12:27:13.972Z,74.75
2018-11-14T12:29:56.491Z,74.82
2018-11-14T12:35:36.745Z,73.09
2018-11-14T12:38:08.988Z,72.79
2018-11-14T12:40:48.508Z,73.07
2018-11-14T12:43:26.289Z,73.21
2018-11-14T12:45:59.350Z,72.78
2018-11-14T12:48:28.306Z,71.87
2018-11-14T12:51:09.950Z,73.40
2018-11-14T12:53:55.478Z,72.83
2018-11-14T12:56:28.323Z,72.70
2018-11-14T12:58:57.198Z,72.78
2018-11-14T13:01:26.084Z,73.02
2018-11-14T13:03:54.954Z,72.07
2018-11-14T13:06:23.905Z,73.13
2018-11-14T13:08:52.877Z,72.14
2018-11-14T13:11:31.394Z,72.16
2018-11-14T13:14:10.514Z,71.81
2018-11-14T13:16:39.528Z,71.69
2018-11-14T13:19:08.474Z,70.60
2018-11-14T13:21:40.588Z,72.47
2018-11-14T13:24:13.582Z,71.70
2018-11-14T13:26:48.108Z,71.34
2018-11-14T13:29:37.879Z,71.89
2018-11-14T13:32:06.803Z,73.39
2018-11-14T13:34:35.739Z,72.45
2018-11-14T13:37:04.620Z,71.58
2018-11-14T13:39:33.514Z,72.69
2018-11-14T13:42:02.426Z,72.47
2018-11-14T13:44:31.311Z,72.89
2018-11-14T13:47:00.263Z,72.82
2018-11-14T13:49:29.192Z,72.69
2018-11-14T13:55:05.851Z,73.27
2018-11-14T13:57:48.962Z,72.63
2018-11-14T14:00:25.075Z,71.96
2018-11-14T14:02:54.481Z,73.13
2018-11-14T14:05:24.457Z,72.62
2018-11-14T14:07:59.568Z,72.50
2018-11-14T14:10:36.557Z,72.78
2018-11-14T14:13:05.899Z,74.04
2018-11-14T14:15:35.348Z,73.12
2018-11-14T14:18:26.827Z,73.83
2018-11-14T14:21:01.644Z,74.08
2018-11-14T14:23:34.766Z,73.95
2018-11-14T14:26:03.803Z,74.80
2018-11-14T14:28:32.730Z,74.12
2018-11-14T14:31:01.727Z,73.72
2018-11-14T14:33:30.669Z,73.83
2018-11-14T14:38:54.275Z,74.31
2018-11-14T14:41:29.620Z,74.72
2018-11-14T14:44:02.956Z,73.82
2018-11-14T14:46:32.002Z,74.48
2018-11-14T14:49:01.039Z,74.88
2018-11-14T14:51:30.085Z,75.04
2018-11-14T14:54:11.187Z,74.45
2018-11-14T14:56:40.079Z,75.04
2018-11-14T14:59:09.093Z,75.42
2018-11-14T15:01:45.057Z,74.53
2018-11-14T15:04:17.497Z,74.38
2018-11-14T15:06:57.060Z,75.15
2018-11-14T15:09:27.990Z,74.34
2018-11-14T15:11:56.893Z,74.56
2018-11-14T15:14:26.650Z,75.66
2018-11-14T15:16:57.568Z,75.34
2018-11-14T15:19:43.273Z,76.05
2018-11-14T15:22:16.268Z,75.99
2018-11-14T15:24:45.315Z,75.23
2018-11-14T15:27:27.889Z,75.73
2018-11-14T15:30:12.161Z,76.31
2018-11-14T15:32:45.708Z,75.74
2018-11-14T15:35:24.396Z,76.22
2018-11-14T15:37:56.978Z,77.25
2018-11-14T15:40:28.366Z,77.61
2018-11-14T15:42:57.423Z,77.65
2018-11-14T15:45:28.421Z,80.68
2018-11-14T15:48:05.142Z,76.90
2018-11-14T15:50:38.431Z,76.77
2018-11-14T15:53:09.445Z,77.42
2018-11-14T15:55:42.325Z,78.23
2018-11-14T15:58:12.334Z,78.91
2018-11-14T16:00:44.935Z,78.57
2018-11-14T16:03:13.850Z,78.95
2018-11-14T16:05:47.386Z,78.94
2018-11-14T16:08:26.413Z,78.72
2018-11-14T16:11:01.852Z,79.32
2018-11-14T16:13:31.947Z,79.42
2018-11-14T16:16:09.181Z,79.62
2018-11-14T16:18:43.569Z,80.26
2018-11-14T16:21:12.645Z,79.40
2018-11-14T16:24:04.597Z,79.69
2018-11-14T16:26:41.650Z,80.46
2018-11-14T16:29:16.400Z,80.50
2018-11-14T16:31:58.115Z,79.56
2018-11-14T16:34:41.797Z,80.40
2018-11-14T16:37:23.280Z,79.64
2018-11-14T16:39:53.204Z,80.45
2018-11-14T16:42:23.592Z,80.47
2018-11-14T16:44:54.766Z,79.87
2018-11-14T16:47:28.753Z,80.35
2018-11-14T16:50:01.388Z,81.29
2018-11-14T16:52:36.503Z,82.78
2018-11-14T16:55:14.155Z,80.37
2018-11-14T16:57:48.261Z,80.87
2018-11-14T17:00:24.764Z,80.53
2018-11-14T17:02:56.892Z,80.43
2018-11-14T17:05:46.516Z,80.78
2018-11-14T17:08:16.436Z,81.01
2018-11-14T17:10:47.447Z,81.00
2018-11-14T17:13:20.553Z,80.60
2018-11-14T17:15:49.492Z,80.61
2018-11-14T17:18:22.265Z,81.75
2018-11-14T17:20:52.559Z,81.79
2018-11-14T17:23:21.599Z,81.92
2018-11-14T17:25:53.693Z,81.95
2018-11-14T17:28:26.577Z,82.31
2018-11-14T17:30:55.550Z,82.81
2018-11-14T17:33:24.581Z,82.32
2018-11-14T17:35:59.773Z,81.95
2018-11-14T17:38:28.642Z,81.47
2018-11-14T17:40:58.570Z,81.99
2018-11-14T17:43:27.613Z,81.60
2018-11-14T17:46:08.755Z,81.51
2018-11-14T17:48:41.141Z,82.53
2018-11-14T17:51:15.971Z,82.49
2018-11-14T17:53:53.158Z,82.30
2018-11-14T17:56:29.068Z,81.83
2018-11-14T17:59:00.262Z,81.70
2018-11-14T18:01:34.427Z,81.87
2018-11-14T18:04:13.689Z,81.27
2018-11-14T18:06:46.231Z,82.46
2018-11-14T18:09:17.481Z,82.07
2018-11-14T18:11:46.398Z,83.40
2018-11-14T18:14:31.546Z,83.59
2018-11-14T18:17:03.149Z,82.97
2018-11-14T18:19:36.340Z,82.87
2018-11-14T18:22:05.737Z,83.09
2018-11-14T18:24:36.130Z,83.11
2018-11-14T18:27:05.363Z,83.87
2018-11-14T18:29:36.266Z,83.43
2018-11-14T18:32:11.142Z,83.53
2018-11-14T18:34:41.078Z,83.24
2018-11-14T18:37:26.157Z,84.39
2018-11-14T18:40:01.341Z,84.56
2018-11-14T18:42:42.630Z,84.06
2018-11-14T18:45:19.667Z,84.39
2018-11-14T18:47:48.904Z,85.12
2018-11-14T18:50:25.223Z,85.35
2018-11-14T18:53:04.325Z,84.40
2018-11-14T18:55:43.171Z,84.42
2018-11-14T18:58:19.943Z,83.55
2018-11-14T19:00:51.050Z,84.17
2018-11-14T19:03:24.012Z,84.37
2018-11-14T19:05:53.899Z,84.28
2018-11-14T19:08:26.635Z,85.12
2018-11-14T19:11:00.835Z,85.59
2018-11-14T19:13:33.698Z,85.39
2018-11-14T19:16:12.707Z,84.99
2018-11-14T19:18:44.676Z,85.40
2018-11-14T19:21:13.529Z,85.16
2018-11-14T19:23:46.714Z,87.75
2018-11-14T19:26:18.513Z,85.29
2018-11-14T19:28:51.502Z,85.23
2018-11-14T19:31:26.393Z,85.65
2018-11-14T19:34:02.359Z,85.19
2018-11-14T19:36:36.385Z,85.27
2018-11-14T19:39:10.823Z,86.04
2018-11-14T19:41:39.954Z,86.05
2018-11-14T19:44:14.878Z,85.64
2018-11-14T19:46:47.412Z,85.84
2018-11-14T19:49:18.679Z,85.66
2018-11-14T19:52:10.963Z,85.84
2018-11-14T19:54:44.547Z,85.39
2018-11-14T19:57:13.545Z,85.28
2018-11-14T19:59:46.558Z,85.68
2018-11-14T20:02:21.602Z,86.45
2018-11-14T20:05:15.183Z,85.82
2018-11-14T20:07:48.710Z,85.62
2018-11-14T20:10:19.196Z,85.62
2018-11-14T20:12:49.791Z,86.51
2018-11-14T20:15:22.162Z,85.83
2018-11-14T20:18:03.812Z,86.06
2018-11-14T20:20:36.262Z,86.77
2018-11-14T20:23:06.396Z,86.62
2018-11-14T20:25:37.447Z,86.32
2018-11-14T20:28:06.623Z,85.58
2018-11-14T20:30:38.056Z,86.13
2018-11-14T20:33:17.903Z,86.25
2018-11-14T20:35:48.837Z,85.96
2018-11-14T20:38:22.237Z,85.63
2018-11-14T20:40:55.139Z,85.90
2018-11-14T20:43:34.298Z,86.33
2018-11-14T20:46:11.390Z,86.37
2018-11-14T20:48:45.789Z,86.14
2018-11-14T20:51:18.780Z,86.35
2018-11-14T20:53:48.758Z,86.60
2018-11-14T20:56:17.996Z,86.96
2018-11-14T20:58:50.095Z,87.00
2018-11-14T21:01:25.440Z,86.06
2018-11-14T21:03:55.047Z,86.25
2018-11-14T21:06:30.702Z,87.18
2018-11-14T21:09:07.699Z,87.38
2018-11-14T21:11:40.126Z,86.74
2018-11-14T21:14:09.110Z,86.66
2018-11-14T21:16:53.941Z,86.57
2018-11-14T21:19:25.137Z,85.77
2018-11-14T21:21:55.180Z,86.16
2018-11-14T21:24:27.909Z,86.76
2018-11-14T21:26:57.855Z,86.63
2018-11-14T21:29:30.522Z,86.82
2018-11-14T21:32:17.231Z,86.28
2018-11-14T21:34:46.182Z,87.07
2018-11-14T21:37:17.086Z,86.80
2018-11-14T21:40:02.343Z,86.65
2018-11-14T21:42:31.218Z,86.22
2018-11-14T21:45:04.816Z,86.58
2018-11-14T21:47:45.326Z,86.53
2018-11-14T21:50:16.036Z,87.13
2018-11-14T21:52:46.259Z,85.97
2018-11-14T21:55:16.315Z,87.17
2018-11-14T21:57:45.256Z,86.26
2018-11-14T22:00:32.976Z,86.28
2018-11-14T22:03:10.902Z,86.41
2018-11-14T22:05:40.846Z,86.53
2018-11-14T22:08:26.483Z,87.15
2018-11-14T22:11:08.068Z,87.06
2018-11-14T22:13:43.024Z,86.89
2018-11-14T22:16:16.873Z,85.77
2018-11-14T22:18:45.865Z,86.41
2018-11-14T22:21:14.770Z,85.76
2018-11-14T22:23:43.621Z,85.69
2018-11-14T22:26:12.594Z,85.63
2018-11-14T22:28:41.526Z,86.31
2018-11-14T22:31:12.421Z,85.71
2018-11-14T22:33:51.339Z,85.51
2018-11-14T22:36:20.208Z,85.26
2018-11-14T22:38:49.132Z,86.02
2018-11-14T22:41:29.985Z,86.43
2018-11-14T22:44:12.590Z,84.69
2018-11-14T22:46:41.535Z,86.31
2018-11-14T22:49:28.024Z,85.87
2018-11-14T22:51:56.936Z,86.53
2018-11-14T22:54:28.144Z,86.55
2018-11-14T22:57:00.417Z,86.29
2018-11-14T23:02:23.165Z,86.42
2018-11-14T23:04:52.207Z,85.74
2018-11-14T23:07:21.100Z,87.13
2018-11-14T23:09:52.068Z,87.21
2018-11-14T23:12:21.012Z,87.18
2018-11-14T23:14:51.000Z,86.94
2018-11-14T23:17:23.716Z,86.95
2018-11-14T23:20:07.222Z,87.08
2018-11-14T23:22:46.366Z,87.54
2018-11-14T23:25:26.576Z,88.92
2018-11-14T23:27:58.986Z,88.68
2018-11-14T23:30:44.830Z,90.50
2018-11-14T23:33:33.520Z,90.69
2018-11-14T23:36:09.623Z,90.54
2018-11-14T23:38:50.307Z,90.33
2018-11-14T23:41:30.308Z,91.06
2018-11-14T23:44:02.810Z,91.75
2018-11-14T23:46:45.310Z,90.65
2018-11-14T23:52:10.129Z,91.47
2018-11-14T23:54:39.124Z,91.48
2018-11-14T23:57:17.764Z,92.30
2018-11-14T23:59:46.772Z,91.87
